sensor_id;sensor_type;location;lat;lon;timestamp;temperature;humidity
1175;DHT22;576;48.418;10.074;2023-06-24T00:00:58;27.30;60.80
1175;DHT22;576;48.418;10.074;2023-06-24T00:03:26;27.30;60.80
1175;DHT22;576;48.418;10.074;2023-06-24T00:05:55;27.30;60.70
1175;DHT22;576;48.418;10.074;2023-06-24T00:08:24;27.30;60.80
1175;DHT22;576;48.418;10.074;2023-06-24T00:11:02;27.30;60.80
1175;DHT22;576;48.418;10.074;2023-06-24T00:13:31;27.30;60.80
1175;DHT22;576;48.418;10.074;2023-06-24T00:16:00;27.30;60.80
1175;DHT22;576;48.418;10.074;2023-06-24T00:18:28;27.30;60.80
1175;DHT22;576;48.418;10.074;2023-06-24T00:20:57;27.30;60.80
1175;DHT22;576;48.418;10.074;2023-06-24T00:23:25;27.30;60.80
1175;DHT22;576;48.418;10.074;2023-06-24T00:25:54;27.30;60.80
1175;DHT22;576;48.418;10.074;2023-06-24T00:28:24;27.20;60.80
1175;DHT22;576;48.418;10.074;2023-06-24T00:30:53;27.20;60.80
1175;DHT22;576;48.418;10.074;2023-06-24T00:33:21;27.20;60.90
1175;DHT22;576;48.418;10.074;2023-06-24T00:35:50;27.20;60.90
1175;DHT22;576;48.418;10.074;2023-06-24T00:38:19;27.20;61.00
1175;DHT22;576;48.418;10.074;2023-06-24T00:40:50;27.20;61.00
1175;DHT22;576;48.418;10.074;2023-06-24T00:43:18;27.20;61.00
1175;DHT22;576;48.418;10.074;2023-06-24T00:45:48;27.20;61.00
1175;DHT22;576;48.418;10.074;2023-06-24T00:48:16;27.20;61.10
1175;DHT22;576;48.418;10.074;2023-06-24T00:50:45;27.20;61.00
1175;DHT22;576;48.418;10.074;2023-06-24T00:53:13;27.20;61.10
1175;DHT22;576;48.418;10.074;2023-06-24T00:55:41;27.20;61.10
1175;DHT22;576;48.418;10.074;2023-06-24T00:58:09;27.20;61.10
1175;DHT22;576;48.418;10.074;2023-06-24T01:00:38;27.20;61.20
1175;DHT22;576;48.418;10.074;2023-06-24T01:03:08;27.10;61.20
1175;DHT22;576;48.418;10.074;2023-06-24T01:05:37;27.10;61.20
1175;DHT22;576;48.418;10.074;2023-06-24T01:08:07;27.10;61.20
1175;DHT22;576;48.418;10.074;2023-06-24T01:10:36;27.10;61.20
1175;DHT22;576;48.418;10.074;2023-06-24T01:13:04;27.10;61.30
1175;DHT22;576;48.418;10.074;2023-06-24T01:15:32;27.10;61.30
1175;DHT22;576;48.418;10.074;2023-06-24T01:18:07;27.10;61.20
1175;DHT22;576;48.418;10.074;2023-06-24T01:20:41;27.10;61.30
1175;DHT22;576;48.418;10.074;2023-06-24T01:23:25;27.10;61.30
1175;DHT22;576;48.418;10.074;2023-06-24T01:26:19;27.10;61.30
1175;DHT22;576;48.418;10.074;2023-06-24T01:29:16;27.10;61.30
1175;DHT22;576;48.418;10.074;2023-06-24T01:31:53;27.10;61.40
1175;DHT22;576;48.418;10.074;2023-06-24T01:34:28;27.10;61.40
1175;DHT22;576;48.418;10.074;2023-06-24T01:37:07;27.10;61.40
1175;DHT22;576;48.418;10.074;2023-06-24T01:39:40;27.00;61.40
1175;DHT22;576;48.418;10.074;2023-06-24T01:42:11;27.10;61.50
1175;DHT22;576;48.418;10.074;2023-06-24T01:44:43;27.00;61.50
1175;DHT22;576;48.418;10.074;2023-06-24T01:47:15;27.00;61.50
1175;DHT22;576;48.418;10.074;2023-06-24T01:49:46;27.00;61.50
1175;DHT22;576;48.418;10.074;2023-06-24T01:52:17;27.00;61.50
1175;DHT22;576;48.418;10.074;2023-06-24T01:54:48;27.00;61.50
1175;DHT22;576;48.418;10.074;2023-06-24T01:57:17;27.00;61.40
1175;DHT22;576;48.418;10.074;2023-06-24T01:59:48;27.00;61.40
1175;DHT22;576;48.418;10.074;2023-06-24T02:02:21;27.00;61.40
1175;DHT22;576;48.418;10.074;2023-06-24T02:04:51;27.00;61.40
1175;DHT22;576;48.418;10.074;2023-06-24T02:07:22;27.00;61.30
1175;DHT22;576;48.418;10.074;2023-06-24T02:09:51;27.00;61.40
1175;DHT22;576;48.418;10.074;2023-06-24T02:12:21;27.00;61.40
1175;DHT22;576;48.418;10.074;2023-06-24T02:14:51;27.00;61.40
1175;DHT22;576;48.418;10.074;2023-06-24T02:17:21;27.00;61.40
1175;DHT22;576;48.418;10.074;2023-06-24T02:19:52;26.90;61.40
1175;DHT22;576;48.418;10.074;2023-06-24T02:22:24;27.00;61.30
1175;DHT22;576;48.418;10.074;2023-06-24T02:24:54;27.00;61.30
1175;DHT22;576;48.418;10.074;2023-06-24T02:27:23;26.90;61.30
1175;DHT22;576;48.418;10.074;2023-06-24T02:29:52;27.00;61.40
1175;DHT22;576;48.418;10.074;2023-06-24T02:32:22;27.00;61.40
1175;DHT22;576;48.418;10.074;2023-06-24T02:34:52;27.00;61.40
1175;DHT22;576;48.418;10.074;2023-06-24T02:37:20;26.90;61.40
1175;DHT22;576;48.418;10.074;2023-06-24T02:39:48;26.90;61.50
1175;DHT22;576;48.418;10.074;2023-06-24T02:42:16;26.90;61.60
1175;DHT22;576;48.418;10.074;2023-06-24T02:44:45;26.90;61.60
1175;DHT22;576;48.418;10.074;2023-06-24T02:47:15;26.90;61.70
1175;DHT22;576;48.418;10.074;2023-06-24T02:49:46;26.90;61.70
1175;DHT22;576;48.418;10.074;2023-06-24T02:52:15;26.90;61.70
1175;DHT22;576;48.418;10.074;2023-06-24T02:54:44;26.90;61.60
1175;DHT22;576;48.418;10.074;2023-06-24T02:57:34;26.90;61.70
1175;DHT22;576;48.418;10.074;2023-06-24T03:00:16;26.90;61.70
1175;DHT22;576;48.418;10.074;2023-06-24T03:03:06;26.90;61.70
1175;DHT22;576;48.418;10.074;2023-06-24T03:05:39;26.90;61.70
1175;DHT22;576;48.418;10.074;2023-06-24T03:08:10;26.90;61.70
1175;DHT22;576;48.418;10.074;2023-06-24T03:10:41;26.90;61.70
1175;DHT22;576;48.418;10.074;2023-06-24T03:13:15;26.90;61.70
1175;DHT22;576;48.418;10.074;2023-06-24T03:15:46;26.90;61.70
1175;DHT22;576;48.418;10.074;2023-06-24T03:18:16;26.80;61.70
1175;DHT22;576;48.418;10.074;2023-06-24T03:20:48;26.80;61.70
1175;DHT22;576;48.418;10.074;2023-06-24T03:23:19;26.80;61.60
1175;DHT22;576;48.418;10.074;2023-06-24T03:25:48;26.80;61.70
1175;DHT22;576;48.418;10.074;2023-06-24T03:28:16;26.80;61.70
1175;DHT22;576;48.418;10.074;2023-06-24T03:30:50;26.80;61.70
1175;DHT22;576;48.418;10.074;2023-06-24T03:33:19;26.80;61.60
1175;DHT22;576;48.418;10.074;2023-06-24T03:35:49;26.80;61.70
1175;DHT22;576;48.418;10.074;2023-06-24T03:38:21;26.80;61.60
1175;DHT22;576;48.418;10.074;2023-06-24T03:40:50;26.80;61.60
1175;DHT22;576;48.418;10.074;2023-06-24T03:43:18;26.80;61.60
1175;DHT22;576;48.418;10.074;2023-06-24T03:45:46;26.80;61.60
1175;DHT22;576;48.418;10.074;2023-06-24T03:48:14;26.70;61.60
1175;DHT22;576;48.418;10.074;2023-06-24T03:50:43;26.70;61.60
1175;DHT22;576;48.418;10.074;2023-06-24T03:53:12;26.70;61.60
1175;DHT22;576;48.418;10.074;2023-06-24T03:55:41;26.70;61.60
1175;DHT22;576;48.418;10.074;2023-06-24T03:58:10;26.70;61.60
1175;DHT22;576;48.418;10.074;2023-06-24T04:00:38;26.70;61.60
1175;DHT22;576;48.418;10.074;2023-06-24T04:03:07;26.70;61.60
1175;DHT22;576;48.418;10.074;2023-06-24T04:05:38;26.70;61.60
1175;DHT22;576;48.418;10.074;2023-06-24T04:08:06;26.70;61.60
1175;DHT22;576;48.418;10.074;2023-06-24T04:10:36;26.70;61.50
1175;DHT22;576;48.418;10.074;2023-06-24T04:13:04;26.70;61.50
1175;DHT22;576;48.418;10.074;2023-06-24T04:15:33;26.70;61.50
1175;DHT22;576;48.418;10.074;2023-06-24T04:18:01;26.70;61.50
1175;DHT22;576;48.418;10.074;2023-06-24T04:20:29;26.70;61.50
1175;DHT22;576;48.418;10.074;2023-06-24T04:22:58;26.70;61.50
1175;DHT22;576;48.418;10.074;2023-06-24T04:25:28;26.70;61.50
1175;DHT22;576;48.418;10.074;2023-06-24T04:27:58;26.70;61.50
1175;DHT22;576;48.418;10.074;2023-06-24T04:30:26;26.70;61.50
1175;DHT22;576;48.418;10.074;2023-06-24T04:32:55;26.70;61.50
1175;DHT22;576;48.418;10.074;2023-06-24T04:35:23;26.70;61.40
1175;DHT22;576;48.418;10.074;2023-06-24T04:37:51;26.70;61.40
1175;DHT22;576;48.418;10.074;2023-06-24T04:40:20;26.70;61.40
1175;DHT22;576;48.418;10.074;2023-06-24T04:42:48;26.70;61.40
1175;DHT22;576;48.418;10.074;2023-06-24T04:45:17;26.70;61.40
1175;DHT22;576;48.418;10.074;2023-06-24T04:47:46;26.70;61.30
1175;DHT22;576;48.418;10.074;2023-06-24T04:50:14;26.70;61.30
1175;DHT22;576;48.418;10.074;2023-06-24T04:52:42;26.70;61.30
1175;DHT22;576;48.418;10.074;2023-06-24T04:55:11;26.70;61.30
1175;DHT22;576;48.418;10.074;2023-06-24T04:57:39;26.70;61.30
1175;DHT22;576;48.418;10.074;2023-06-24T05:00:09;26.80;61.30
1175;DHT22;576;48.418;10.074;2023-06-24T05:02:39;26.80;61.30
1175;DHT22;576;48.418;10.074;2023-06-24T05:05:08;26.80;61.30
1175;DHT22;576;48.418;10.074;2023-06-24T05:07:36;26.80;61.30
1175;DHT22;576;48.418;10.074;2023-06-24T05:10:05;26.80;61.40
1175;DHT22;576;48.418;10.074;2023-06-24T05:12:33;26.80;61.40
1175;DHT22;576;48.418;10.074;2023-06-24T05:15:01;26.80;61.30
1175;DHT22;576;48.418;10.074;2023-06-24T05:17:29;26.80;61.40
1175;DHT22;576;48.418;10.074;2023-06-24T05:19:59;26.90;61.30
1175;DHT22;576;48.418;10.074;2023-06-24T05:22:28;26.90;61.30
1175;DHT22;576;48.418;10.074;2023-06-24T05:24:56;26.90;61.30
1175;DHT22;576;48.418;10.074;2023-06-24T05:27:24;26.90;61.30
1175;DHT22;576;48.418;10.074;2023-06-24T05:29:52;26.90;61.30
1175;DHT22;576;48.418;10.074;2023-06-24T05:32:20;26.90;61.30
1175;DHT22;576;48.418;10.074;2023-06-24T05:34:48;26.90;61.30
1175;DHT22;576;48.418;10.074;2023-06-24T05:37:18;26.90;61.30
1175;DHT22;576;48.418;10.074;2023-06-24T05:39:46;26.90;61.30
1175;DHT22;576;48.418;10.074;2023-06-24T05:42:15;26.90;61.30
1175;DHT22;576;48.418;10.074;2023-06-24T05:44:43;26.90;61.30
1175;DHT22;576;48.418;10.074;2023-06-24T05:47:11;26.90;61.30
1175;DHT22;576;48.418;10.074;2023-06-24T05:49:40;27.00;61.30
1175;DHT22;576;48.418;10.074;2023-06-24T05:52:08;27.00;61.30
1175;DHT22;576;48.418;10.074;2023-06-24T05:54:37;27.00;61.30
1175;DHT22;576;48.418;10.074;2023-06-24T05:57:06;27.00;61.30
1175;DHT22;576;48.418;10.074;2023-06-24T05:59:34;27.00;61.30
1175;DHT22;576;48.418;10.074;2023-06-24T06:02:02;27.00;61.20
1175;DHT22;576;48.418;10.074;2023-06-24T06:04:30;27.00;61.30
1175;DHT22;576;48.418;10.074;2023-06-24T06:06:58;27.00;61.20
1175;DHT22;576;48.418;10.074;2023-06-24T06:09:27;27.00;61.30
1175;DHT22;576;48.418;10.074;2023-06-24T06:11:56;27.00;61.30
1175;DHT22;576;48.418;10.074;2023-06-24T06:14:24;27.00;61.20
1175;DHT22;576;48.418;10.074;2023-06-24T06:16:52;27.00;61.20
1175;DHT22;576;48.418;10.074;2023-06-24T06:19:21;27.00;61.20
1175;DHT22;576;48.418;10.074;2023-06-24T06:21:49;27.00;61.20
1175;DHT22;576;48.418;10.074;2023-06-24T06:24:18;27.00;61.20
1175;DHT22;576;48.418;10.074;2023-06-24T06:26:46;27.00;61.30
1175;DHT22;576;48.418;10.074;2023-06-24T06:29:16;27.00;61.30
1175;DHT22;576;48.418;10.074;2023-06-24T06:31:44;27.00;61.30
1175;DHT22;576;48.418;10.074;2023-06-24T06:34:12;27.00;61.30
1175;DHT22;576;48.418;10.074;2023-06-24T06:36:40;27.00;61.30
1175;DHT22;576;48.418;10.074;2023-06-24T06:39:09;27.10;61.30
1175;DHT22;576;48.418;10.074;2023-06-24T06:41:37;27.10;61.30
1175;DHT22;576;48.418;10.074;2023-06-24T06:44:11;27.10;61.30
1175;DHT22;576;48.418;10.074;2023-06-24T06:46:40;27.10;61.30
1175;DHT22;576;48.418;10.074;2023-06-24T06:49:08;27.10;61.40
1175;DHT22;576;48.418;10.074;2023-06-24T06:51:36;27.10;61.40
1175;DHT22;576;48.418;10.074;2023-06-24T06:54:05;27.10;61.40
1175;DHT22;576;48.418;10.074;2023-06-24T06:56:33;27.10;61.40
1175;DHT22;576;48.418;10.074;2023-06-24T06:59:01;27.10;61.40
1175;DHT22;576;48.418;10.074;2023-06-24T07:01:29;27.10;61.30
1175;DHT22;576;48.418;10.074;2023-06-24T07:03:59;27.20;61.30
1175;DHT22;576;48.418;10.074;2023-06-24T07:06:27;27.10;61.30
1175;DHT22;576;48.418;10.074;2023-06-24T07:08:55;27.10;61.30
1175;DHT22;576;48.418;10.074;2023-06-24T07:11:23;27.10;61.40
1175;DHT22;576;48.418;10.074;2023-06-24T07:13:52;27.20;61.30
1175;DHT22;576;48.418;10.074;2023-06-24T07:16:20;27.20;61.30
1175;DHT22;576;48.418;10.074;2023-06-24T07:18:48;27.20;61.30
1175;DHT22;576;48.418;10.074;2023-06-24T07:21:18;27.20;61.30
1175;DHT22;576;48.418;10.074;2023-06-24T07:23:46;27.20;61.30
1175;DHT22;576;48.418;10.074;2023-06-24T07:26:14;27.20;61.30
1175;DHT22;576;48.418;10.074;2023-06-24T07:28:42;27.20;61.30
1175;DHT22;576;48.418;10.074;2023-06-24T07:31:22;27.20;61.30
1175;DHT22;576;48.418;10.074;2023-06-24T07:33:50;27.20;61.40
1175;DHT22;576;48.418;10.074;2023-06-24T07:36:20;27.20;61.30
1175;DHT22;576;48.418;10.074;2023-06-24T07:38:48;27.20;61.30
1175;DHT22;576;48.418;10.074;2023-06-24T07:41:16;27.20;61.40
1175;DHT22;576;48.418;10.074;2023-06-24T07:43:45;27.20;61.30
1175;DHT22;576;48.418;10.074;2023-06-24T07:46:13;27.20;61.40
1175;DHT22;576;48.418;10.074;2023-06-24T07:48:41;27.20;61.40
1175;DHT22;576;48.418;10.074;2023-06-24T07:51:09;27.30;61.40
1175;DHT22;576;48.418;10.074;2023-06-24T07:53:39;27.20;61.50
1175;DHT22;576;48.418;10.074;2023-06-24T07:56:07;27.30;61.50
1175;DHT22;576;48.418;10.074;2023-06-24T07:58:35;27.30;61.50
1175;DHT22;576;48.418;10.074;2023-06-24T08:01:05;27.30;61.50
1175;DHT22;576;48.418;10.074;2023-06-24T08:03:34;27.30;61.50
1175;DHT22;576;48.418;10.074;2023-06-24T08:06:04;27.30;61.50
1175;DHT22;576;48.418;10.074;2023-06-24T08:08:32;27.30;61.50
1175;DHT22;576;48.418;10.074;2023-06-24T08:11:02;27.30;61.50
1175;DHT22;576;48.418;10.074;2023-06-24T08:13:30;27.30;61.50
1175;DHT22;576;48.418;10.074;2023-06-24T08:15:58;27.30;61.50
1175;DHT22;576;48.418;10.074;2023-06-24T08:18:27;27.30;61.50
1175;DHT22;576;48.418;10.074;2023-06-24T08:20:55;27.30;61.50
1175;DHT22;576;48.418;10.074;2023-06-24T08:23:23;27.30;61.50
1175;DHT22;576;48.418;10.074;2023-06-24T08:25:52;27.30;61.50
1175;DHT22;576;48.418;10.074;2023-06-24T08:28:32;27.30;61.50
1175;DHT22;576;48.418;10.074;2023-06-24T08:31:00;27.30;61.50
1175;DHT22;576;48.418;10.074;2023-06-24T08:33:28;27.40;61.50
1175;DHT22;576;48.418;10.074;2023-06-24T08:35:56;27.40;61.50
1175;DHT22;576;48.418;10.074;2023-06-24T08:38:24;27.40;61.50
1175;DHT22;576;48.418;10.074;2023-06-24T08:40:52;27.40;61.50
1175;DHT22;576;48.418;10.074;2023-06-24T08:43:21;27.40;61.50
1175;DHT22;576;48.418;10.074;2023-06-24T08:45:50;27.40;61.50
1175;DHT22;576;48.418;10.074;2023-06-24T08:48:20;27.40;61.50
1175;DHT22;576;48.418;10.074;2023-06-24T08:50:51;27.40;61.40
1175;DHT22;576;48.418;10.074;2023-06-24T08:53:20;27.50;61.40
1175;DHT22;576;48.418;10.074;2023-06-24T08:55:49;27.40;61.40
1175;DHT22;576;48.418;10.074;2023-06-24T08:58:20;27.40;61.40
1175;DHT22;576;48.418;10.074;2023-06-24T09:00:49;27.50;61.40
1175;DHT22;576;48.418;10.074;2023-06-24T09:03:18;27.50;61.40
1175;DHT22;576;48.418;10.074;2023-06-24T09:05:46;27.50;61.40
1175;DHT22;576;48.418;10.074;2023-06-24T09:08:15;27.50;61.30
1175;DHT22;576;48.418;10.074;2023-06-24T09:10:43;27.50;61.30
1175;DHT22;576;48.418;10.074;2023-06-24T09:13:12;27.50;61.30
1175;DHT22;576;48.418;10.074;2023-06-24T09:15:40;27.50;61.30
1175;DHT22;576;48.418;10.074;2023-06-24T09:18:10;27.50;61.30
1175;DHT22;576;48.418;10.074;2023-06-24T09:20:42;27.50;61.30
1175;DHT22;576;48.418;10.074;2023-06-24T09:23:11;27.50;61.30
1175;DHT22;576;48.418;10.074;2023-06-24T09:25:40;27.50;61.30
1175;DHT22;576;48.418;10.074;2023-06-24T09:28:08;27.50;61.40
1175;DHT22;576;48.418;10.074;2023-06-24T09:30:36;27.50;61.30
1175;DHT22;576;48.418;10.074;2023-06-24T09:33:04;27.60;61.30
1175;DHT22;576;48.418;10.074;2023-06-24T09:35:35;27.60;61.30
1175;DHT22;576;48.418;10.074;2023-06-24T09:38:04;27.50;61.30
1175;DHT22;576;48.418;10.074;2023-06-24T09:40:35;27.60;61.30
1175;DHT22;576;48.418;10.074;2023-06-24T09:43:04;27.60;61.30
1175;DHT22;576;48.418;10.074;2023-06-24T09:45:32;27.60;61.30
1175;DHT22;576;48.418;10.074;2023-06-24T09:48:00;27.60;61.30
1175;DHT22;576;48.418;10.074;2023-06-24T09:50:29;27.60;61.30
1175;DHT22;576;48.418;10.074;2023-06-24T09:53:00;27.60;61.30
1175;DHT22;576;48.418;10.074;2023-06-24T09:55:28;27.60;61.30
1175;DHT22;576;48.418;10.074;2023-06-24T09:57:56;27.60;61.30
1175;DHT22;576;48.418;10.074;2023-06-24T10:00:25;27.60;61.30
1175;DHT22;576;48.418;10.074;2023-06-24T10:02:54;27.60;61.30
1175;DHT22;576;48.418;10.074;2023-06-24T10:05:27;27.60;61.30
1175;DHT22;576;48.418;10.074;2023-06-24T10:07:55;27.60;61.30
1175;DHT22;576;48.418;10.074;2023-06-24T10:10:25;27.60;61.30
1175;DHT22;576;48.418;10.074;2023-06-24T10:12:53;27.60;61.30
1175;DHT22;576;48.418;10.074;2023-06-24T10:15:22;27.60;61.20
1175;DHT22;576;48.418;10.074;2023-06-24T10:17:51;27.60;61.20
1175;DHT22;576;48.418;10.074;2023-06-24T10:20:38;27.60;61.20
1175;DHT22;576;48.418;10.074;2023-06-24T10:23:06;27.70;61.20
1175;DHT22;576;48.418;10.074;2023-06-24T10:25:37;27.70;61.20
1175;DHT22;576;48.418;10.074;2023-06-24T10:28:05;27.60;61.20
1175;DHT22;576;48.418;10.074;2023-06-24T10:30:36;27.60;61.20
1175;DHT22;576;48.418;10.074;2023-06-24T10:33:09;27.60;61.20
1175;DHT22;576;48.418;10.074;2023-06-24T10:35:42;27.60;61.20
1175;DHT22;576;48.418;10.074;2023-06-24T10:38:11;27.60;61.20
1175;DHT22;576;48.418;10.074;2023-06-24T10:40:42;27.60;61.20
1175;DHT22;576;48.418;10.074;2023-06-24T10:43:27;27.70;61.20
1175;DHT22;576;48.418;10.074;2023-06-24T10:45:57;27.70;61.20
1175;DHT22;576;48.418;10.074;2023-06-24T10:48:26;27.60;61.20
1175;DHT22;576;48.418;10.074;2023-06-24T10:50:54;27.60;61.30
1175;DHT22;576;48.418;10.074;2023-06-24T10:53:23;27.60;61.20
1175;DHT22;576;48.418;10.074;2023-06-24T10:55:52;27.60;61.20
1175;DHT22;576;48.418;10.074;2023-06-24T10:58:24;27.70;61.20
1175;DHT22;576;48.418;10.074;2023-06-24T11:00:53;27.70;61.20
1175;DHT22;576;48.418;10.074;2023-06-24T11:03:22;27.70;61.20
1175;DHT22;576;48.418;10.074;2023-06-24T11:05:51;27.70;61.10
1175;DHT22;576;48.418;10.074;2023-06-24T11:08:20;27.70;61.10
1175;DHT22;576;48.418;10.074;2023-06-24T11:10:52;27.70;61.10
1175;DHT22;576;48.418;10.074;2023-06-24T11:13:20;27.70;61.10
1175;DHT22;576;48.418;10.074;2023-06-24T11:15:49;27.70;61.10
1175;DHT22;576;48.418;10.074;2023-06-24T11:18:17;27.70;61.10
1175;DHT22;576;48.418;10.074;2023-06-24T11:20:45;27.70;61.00
1175;DHT22;576;48.418;10.074;2023-06-24T11:23:13;27.70;61.00
1175;DHT22;576;48.418;10.074;2023-06-24T11:25:43;27.70;61.00
1175;DHT22;576;48.418;10.074;2023-06-24T11:28:17;27.70;61.10
1175;DHT22;576;48.418;10.074;2023-06-24T11:30:49;27.70;61.10
1175;DHT22;576;48.418;10.074;2023-06-24T11:33:26;27.70;61.10
1175;DHT22;576;48.418;10.074;2023-06-24T11:35:55;27.70;61.10
1175;DHT22;576;48.418;10.074;2023-06-24T11:38:23;27.70;61.10
1175;DHT22;576;48.418;10.074;2023-06-24T11:40:59;27.70;61.10
1175;DHT22;576;48.418;10.074;2023-06-24T11:43:29;27.70;61.10
1175;DHT22;576;48.418;10.074;2023-06-24T11:45:57;27.70;61.20
1175;DHT22;576;48.418;10.074;2023-06-24T11:48:28;27.60;61.20
1175;DHT22;576;48.418;10.074;2023-06-24T11:50:57;27.60;61.20
1175;DHT22;576;48.418;10.074;2023-06-24T11:53:29;27.60;61.20
1175;DHT22;576;48.418;10.074;2023-06-24T11:55:58;27.70;61.20
1175;DHT22;576;48.418;10.074;2023-06-24T11:58:28;27.60;61.20
1175;DHT22;576;48.418;10.074;2023-06-24T12:00:56;27.70;61.20
1175;DHT22;576;48.418;10.074;2023-06-24T12:03:24;27.70;61.10
1175;DHT22;576;48.418;10.074;2023-06-24T12:05:53;27.70;61.10
1175;DHT22;576;48.418;10.074;2023-06-24T12:08:21;27.70;61.00
1175;DHT22;576;48.418;10.074;2023-06-24T12:10:51;27.80;61.00
1175;DHT22;576;48.418;10.074;2023-06-24T12:13:19;27.80;60.80
1175;DHT22;576;48.418;10.074;2023-06-24T12:15:49;27.90;60.70
1175;DHT22;576;48.418;10.074;2023-06-24T12:18:17;28.10;60.50
1175;DHT22;576;48.418;10.074;2023-06-24T12:20:45;28.30;60.20
1175;DHT22;576;48.418;10.074;2023-06-24T12:23:13;28.50;59.90
1175;DHT22;576;48.418;10.074;2023-06-24T12:25:42;28.70;59.60
1175;DHT22;576;48.418;10.074;2023-06-24T12:28:10;28.90;59.00
1175;DHT22;576;48.418;10.074;2023-06-24T12:30:39;29.00;58.70
1175;DHT22;576;48.418;10.074;2023-06-24T12:33:08;29.10;58.60
1175;DHT22;576;48.418;10.074;2023-06-24T12:35:36;29.10;58.30
1175;DHT22;576;48.418;10.074;2023-06-24T12:38:04;29.10;58.30
1175;DHT22;576;48.418;10.074;2023-06-24T12:40:33;29.10;58.30
1175;DHT22;576;48.418;10.074;2023-06-24T12:43:01;29.10;58.30
1175;DHT22;576;48.418;10.074;2023-06-24T12:45:31;29.10;58.50
1175;DHT22;576;48.418;10.074;2023-06-24T12:47:59;29.00;58.50
1175;DHT22;576;48.418;10.074;2023-06-24T12:50:29;29.00;58.60
1175;DHT22;576;48.418;10.074;2023-06-24T12:52:58;28.90;58.70
1175;DHT22;576;48.418;10.074;2023-06-24T12:55:27;28.90;58.70
1175;DHT22;576;48.418;10.074;2023-06-24T12:57:55;28.90;58.80
1175;DHT22;576;48.418;10.074;2023-06-24T13:00:23;28.90;58.90
1175;DHT22;576;48.418;10.074;2023-06-24T13:02:52;28.90;58.80
1175;DHT22;576;48.418;10.074;2023-06-24T13:05:20;28.90;58.80
1175;DHT22;576;48.418;10.074;2023-06-24T13:07:50;28.80;58.80
1175;DHT22;576;48.418;10.074;2023-06-24T13:10:18;28.80;58.90
1175;DHT22;576;48.418;10.074;2023-06-24T13:12:46;28.80;59.00
1175;DHT22;576;48.418;10.074;2023-06-24T13:15:18;28.80;58.90
1175;DHT22;576;48.418;10.074;2023-06-24T13:17:46;28.80;58.90
1175;DHT22;576;48.418;10.074;2023-06-24T13:20:15;28.80;58.90
1175;DHT22;576;48.418;10.074;2023-06-24T13:22:43;28.80;58.90
1175;DHT22;576;48.418;10.074;2023-06-24T13:25:12;28.80;58.90
1175;DHT22;576;48.418;10.074;2023-06-24T13:27:43;28.80;58.90
1175;DHT22;576;48.418;10.074;2023-06-24T13:30:13;28.70;58.90
1175;DHT22;576;48.418;10.074;2023-06-24T13:32:42;28.70;58.90
1175;DHT22;576;48.418;10.074;2023-06-24T13:35:11;28.70;58.90
1175;DHT22;576;48.418;10.074;2023-06-24T13:37:39;28.70;58.90
1175;DHT22;576;48.418;10.074;2023-06-24T13:40:08;28.70;58.90
1175;DHT22;576;48.418;10.074;2023-06-24T13:42:38;28.70;58.90
1175;DHT22;576;48.418;10.074;2023-06-24T13:45:07;28.70;58.90
1175;DHT22;576;48.418;10.074;2023-06-24T13:47:35;28.70;58.80
1175;DHT22;576;48.418;10.074;2023-06-24T13:50:05;28.80;58.90
1175;DHT22;576;48.418;10.074;2023-06-24T13:52:33;28.70;58.90
1175;DHT22;576;48.418;10.074;2023-06-24T13:55:01;28.80;58.90
1175;DHT22;576;48.418;10.074;2023-06-24T13:57:29;28.80;58.80
1175;DHT22;576;48.418;10.074;2023-06-24T13:59:59;28.80;58.80
1175;DHT22;576;48.418;10.074;2023-06-24T14:02:27;28.80;58.80
1175;DHT22;576;48.418;10.074;2023-06-24T14:04:55;28.80;58.70
1175;DHT22;576;48.418;10.074;2023-06-24T14:07:24;28.80;58.70
1175;DHT22;576;48.418;10.074;2023-06-24T14:09:52;28.70;58.70
1175;DHT22;576;48.418;10.074;2023-06-24T14:12:20;28.70;58.60
1175;DHT22;576;48.418;10.074;2023-06-24T14:14:49;28.80;58.60
1175;DHT22;576;48.418;10.074;2023-06-24T14:17:18;28.80;58.60
1175;DHT22;576;48.418;10.074;2023-06-24T14:19:46;28.80;58.70
1175;DHT22;576;48.418;10.074;2023-06-24T14:22:15;28.70;58.60
1175;DHT22;576;48.418;10.074;2023-06-24T14:24:44;28.70;58.70
1175;DHT22;576;48.418;10.074;2023-06-24T14:27:12;28.70;58.80
1175;DHT22;576;48.418;10.074;2023-06-24T14:29:40;28.70;58.80
1175;DHT22;576;48.418;10.074;2023-06-24T14:32:08;28.70;58.80
1175;DHT22;576;48.418;10.074;2023-06-24T14:34:38;28.70;58.80
1175;DHT22;576;48.418;10.074;2023-06-24T14:37:06;28.70;58.80
1175;DHT22;576;48.418;10.074;2023-06-24T14:39:34;28.70;58.70
1175;DHT22;576;48.418;10.074;2023-06-24T14:42:03;28.80;58.70
1175;DHT22;576;48.418;10.074;2023-06-24T14:44:31;28.80;58.60
1175;DHT22;576;48.418;10.074;2023-06-24T14:46:59;28.80;58.60
1175;DHT22;576;48.418;10.074;2023-06-24T14:49:27;28.80;58.60
1175;DHT22;576;48.418;10.074;2023-06-24T14:51:57;28.80;58.60
1175;DHT22;576;48.418;10.074;2023-06-24T14:54:25;28.80;58.60
1175;DHT22;576;48.418;10.074;2023-06-24T14:56:53;28.80;58.60
1175;DHT22;576;48.418;10.074;2023-06-24T14:59:21;28.90;58.60
1175;DHT22;576;48.418;10.074;2023-06-24T15:01:49;28.90;58.60
1175;DHT22;576;48.418;10.074;2023-06-24T15:04:18;28.90;58.60
1175;DHT22;576;48.418;10.074;2023-06-24T15:06:49;28.90;58.50
1175;DHT22;576;48.418;10.074;2023-06-24T15:09:18;28.90;58.50
1175;DHT22;576;48.418;10.074;2023-06-24T15:11:47;28.90;58.50
1175;DHT22;576;48.418;10.074;2023-06-24T15:14:15;28.90;58.50
1175;DHT22;576;48.418;10.074;2023-06-24T15:16:43;28.90;58.50
1175;DHT22;576;48.418;10.074;2023-06-24T15:19:11;28.90;58.60
1175;DHT22;576;48.418;10.074;2023-06-24T15:21:39;28.90;58.60
1175;DHT22;576;48.418;10.074;2023-06-24T15:24:08;28.90;58.60
1175;DHT22;576;48.418;10.074;2023-06-24T15:26:37;28.90;58.60
1175;DHT22;576;48.418;10.074;2023-06-24T15:29:05;28.90;58.60
1175;DHT22;576;48.418;10.074;2023-06-24T15:31:33;28.90;58.50
1175;DHT22;576;48.418;10.074;2023-06-24T15:34:02;28.90;58.60
1175;DHT22;576;48.418;10.074;2023-06-24T15:36:30;28.90;58.60
1175;DHT22;576;48.418;10.074;2023-06-24T15:38:58;28.90;58.60
1175;DHT22;576;48.418;10.074;2023-06-24T15:41:26;28.90;58.60
1175;DHT22;576;48.418;10.074;2023-06-24T15:43:56;28.90;58.60
1175;DHT22;576;48.418;10.074;2023-06-24T15:46:24;28.90;58.60
1175;DHT22;576;48.418;10.074;2023-06-24T15:48:52;29.00;58.50
1175;DHT22;576;48.418;10.074;2023-06-24T15:51:23;28.90;58.50
1175;DHT22;576;48.418;10.074;2023-06-24T15:53:51;28.90;58.50
1175;DHT22;576;48.418;10.074;2023-06-24T15:56:20;28.90;58.50
1175;DHT22;576;48.418;10.074;2023-06-24T15:58:48;28.90;58.50
1175;DHT22;576;48.418;10.074;2023-06-24T16:01:17;28.90;58.50
1175;DHT22;576;48.418;10.074;2023-06-24T16:03:46;29.00;58.50
1175;DHT22;576;48.418;10.074;2023-06-24T16:06:14;29.00;58.50
1175;DHT22;576;48.418;10.074;2023-06-24T16:08:42;29.00;58.50
1175;DHT22;576;48.418;10.074;2023-06-24T16:11:10;29.00;58.40
1175;DHT22;576;48.418;10.074;2023-06-24T16:13:39;29.00;58.50
1175;DHT22;576;48.418;10.074;2023-06-24T16:16:07;29.00;58.50